Time;durP1;ratioP1;P1;durP2;ratioP2;P2;SDS_P1;SDS_P2;PMS_P1;PMS_P2;Temp;Humidity;BMP_temperature;BMP_pressure;BME280_temperature;BME280_humidity;BME280_pressure;Samples;Min_cycle;Max_cycle;Signal;HPM_P1;HPM_P2
2021/11/05 00:00:28;;;;;;;;;;;;;;;;;;2116127;28;1354;-86
2021/11/05 00:01:28;;;;;;;;;;;;;;;;;;2108222;28;1349;-86
2021/11/05 00:02:30;;;;;;;;;;;;;;;;;;2116223;28;1551;-86
2021/11/05 00:03:32;;;;;;;;;;;;;;;;;;2099300;28;2034;-86
2021/11/05 00:04:36;;;;;;;;;;;;;;;;;;2099272;28;1289;-86
2021/11/05 00:05:38;;;;;;;;;;;;;;;;;;2107396;28;1243;-86
2021/11/05 00:06:38;;;;;;;;;;;;;;;;;;2099098;28;1230;-86
2021/11/05 00:07:41;;;;;;;;;;;;;;;;;;2108834;28;1350;-86
2021/11/05 00:08:43;;;;;;;;;;;;;;;;;;2116469;28;965;-85
2021/11/05 00:09:45;;;;;;;;;;;;;;;;;;2116386;28;1221;-85
2021/11/05 00:10:47;;;;;;;;;;;;;;;;;;2108004;28;1328;-86
2021/11/05 00:11:48;;;;;;;;;;;;;;;;;;2107691;28;1265;-85
2021/11/05 00:12:51;;;;;;;;;;;;;;;;;;2106950;28;1836;-85
2021/11/05 00:13:53;;;;;;;;;;;;;;;;;;2107716;28;1914;-86
2021/11/05 00:14:54;;;;;;;;;;;;;;;;;;2107608;28;1396;-85
2021/11/05 00:15:55;;;;;;;;;;;;;;;;;;2099137;28;1317;-86
2021/11/05 00:16:56;;;;;;;;;;;;;;;;;;2099622;28;1298;-85
2021/11/05 00:17:58;;;;;;;;;;;;;;;;;;2102512;28;1317;-85
2021/11/05 00:18:59;;;;;;;;;;;;;;;;;;2107270;28;1313;-86
2021/11/05 00:20:01;;;;;;;;;;;;;;;;;;2099379;28;1341;-86
2021/11/05 00:21:03;;;;;;;;;;;;;;;;;;2099124;28;1276;-86
2021/11/05 00:22:04;;;;;;;;;;;;;;;;;;2099740;28;1212;-86
2021/11/05 00:23:06;;;;;;;;;;;;;;;;;;2104962;28;1256;-86
2021/11/05 00:24:06;;;;;;;;;;;;;;;;;;2109912;28;1317;-85
2021/11/05 00:25:10;;;;;;;;;;;;;;;;;;2109169;28;1196;-86
2021/11/05 00:26:11;;;;;;;;;;;;;;;;;;2105561;28;1433;-86
2021/11/05 00:27:16;;;;;;;;;;;;;;;;;;2101199;28;1261;-85
2021/11/05 00:28:17;;;;;;;;;;;;;;;;;;2101140;28;1247;-86
2021/11/05 00:29:18;;;;;;;;;;;;;;;;;;2101371;28;1340;-87
2021/11/05 00:30:21;;;;;;;;;;;;;;;;;;2101459;28;1340;-86
2021/11/05 00:31:22;;;;;;;;;;;;;;;;;;2109105;28;1368;-88
2021/11/05 00:32:24;;;;;;;;;;;;;;;;;;2101181;28;1323;-89
2021/11/05 00:33:26;;;;;;;;;;;;;;;;;;2109964;28;1372;-88
2021/11/05 00:34:27;;;;;;;;;;;;;;;;;;2109269;28;1930;-89
2021/11/05 00:35:29;;;;;;;;;;;;;;;;;;2109503;28;1214;-88
2021/11/05 00:36:30;;;;;;;;;;;;;;;;;;2109266;28;1359;-88
2021/11/05 00:37:33;;;;;;;;;;;;;;;;;;2109031;28;1392;-87
2021/11/05 00:38:35;;;;;;;;;;;;;;;;;;2101421;28;1353;-88
2021/11/05 00:39:36;;;;;;;;;;;;;;;;;;2100774;28;1395;-87
2021/11/05 00:40:40;;;;;;;;;;;;;;;;;;2109151;28;1246;-88
2021/11/05 00:41:41;;;;;;;;;;;;;;;;;;2109953;28;1329;-88
2021/11/05 00:42:44;;;;;;;;;;;;;;;;;;2109161;28;1218;-88
2021/11/05 00:43:46;;;;;;;;;;;;;;;;;;2109430;28;1287;-88
2021/11/05 00:44:47;;;;;;;;;;;;;;;;;;2101458;28;1241;-88
2021/11/05 00:45:52;;;;;;;;;;;;;;;;;;2101566;28;1266;-88
2021/11/05 00:46:53;;;;;;;;;;;;;;;;;;2109866;28;1439;-88
2021/11/05 00:47:55;;;;;;;;;;;;;;;;;;2109438;28;1288;-88
2021/11/05 00:48:57;;;;;;;;;;;;;;;;;;2117873;28;1319;-87
2021/11/05 00:49:59;;;;;;;;;;;;;;;;;;2109297;28;1268;-88
2021/11/05 00:51:01;;;;;;;;;;;;;;;;;;2109428;28;1222;-89
2021/11/05 00:52:01;;;;;;;;;;;;;;;;;;2118601;28;1311;-88
2021/11/05 00:53:03;;;;;;;;;;;;;;;;;;2117362;28;1252;-89
2021/11/05 00:54:04;;;;;;;;;;;;;;;;;;2109006;28;1977;-88
2021/11/05 00:55:07;;;;;;;;;;;;;;;;;;2117348;28;1392;-88
2021/11/05 00:56:09;;;;;;;;;;;;;;;;;;2118115;28;1356;-88
2021/11/05 00:57:12;;;;;;;;;;;;;;;;;;2109502;28;1241;-88
2021/11/05 00:58:16;;;;;;;;;;;;;;;;;;2100985;28;1208;-88
2021/11/05 00:59:17;;;;;;;;;;;;;;;;;;2109886;28;1374;-88
2021/11/05 01:00:20;;;;;;;;;;;;;;;;;;2118051;28;1261;-88
2021/11/05 01:01:21;;;;;;;;;;;;;;;;;;2109620;28;1323;-88
2021/11/05 01:02:23;;;;;;;;;;;;;;;;;;2117815;28;1361;-88
2021/11/05 01:03:24;;;;;;;;;;;;;;;;;;2109634;28;1256;-86
2021/11/05 01:04:25;;;;;;;;;;;;;;;;;;2109059;28;1354;-86
2021/11/05 01:05:27;;;;;;;;;;;;;;;;;;2108932;28;1369;-86
2021/11/05 01:06:28;;;;;;;;;;;;;;;;;;2108828;28;1399;-86
2021/11/05 01:07:30;;;;;;;;;;;;;;;;;;2100407;28;1354;-86
2021/11/05 01:08:31;;;;;;;;;;;;;;;;;;2108930;28;1880;-86
2021/11/05 01:09:33;;;;;;;;;;;;;;;;;;2108747;28;1222;-86
2021/11/05 01:10:37;;;;;;;;;;;;;;;;;;2108674;28;1593;-87
2021/11/05 01:11:39;;;;;;;;;;;;;;;;;;2117182;28;1266;-86
2021/11/05 01:12:41;;;;;;;;;;;;;;;;;;2109494;28;1324;-90
2021/11/05 01:13:42;;;;;;;;;;;;;;;;;;2108803;28;1191;-86
2021/11/05 01:14:44;;;;;;;;;;;;;;;;;;2117553;28;1963;-87
2021/11/05 01:15:45;;;;;;;;;;;;;;;;;;2117891;28;1222;-87
2021/11/05 01:16:47;;;;;;;;;;;;;;;;;;2108876;28;1381;-87
2021/11/05 01:17:48;;;;;;;;;;;;;;;;;;2106982;28;1392;-87
2021/11/05 01:18:50;;;;;;;;;;;;;;;;;;2100653;28;1368;-87
2021/11/05 01:19:51;;;;;;;;;;;;;;;;;;2100473;28;1347;-87
2021/11/05 01:20:53;;;;;;;;;;;;;;;;;;2108995;28;1385;-87
2021/11/05 01:21:54;;;;;;;;;;;;;;;;;;2100366;28;1265;-87
2021/11/05 01:22:56;;;;;;;;;;;;;;;;;;2100836;28;1324;-87
2021/11/05 01:23:58;;;;;;;;;;;;;;;;;;2100545;28;1251;-87
2021/11/05 01:25:00;;;;;;;;;;;;;;;;;;2100368;28;1230;-87
2021/11/05 01:26:00;;;;;;;;;;;;;;;;;;2100650;28;1953;-87
2021/11/05 01:27:04;;;;;;;;;;;;;;;;;;2100764;28;1358;-87
2021/11/05 01:28:05;;;;;;;;;;;;;;;;;;2104960;28;2142;-87
2021/11/05 01:29:07;;;;;;;;;;;;;;;;;;2116963;28;1331;-87
2021/11/05 01:30:08;;;;;;;;;;;;;;;;;;2108786;28;1296;-87
2021/11/05 01:31:10;;;;;;;;;;;;;;;;;;2108753;28;1487;-86
2021/11/05 01:32:11;;;;;;;;;;;;;;;;;;2108980;28;1340;-87
2021/11/05 01:33:14;;;;;;;;;;;;;;;;;;2108591;28;1402;-87
2021/11/05 01:34:15;;;;;;;;;;;;;;;;;;2116375;28;1913;-87
2021/11/05 01:35:18;;;;;;;;;;;;;;;;;;2108921;28;1265;-87
2021/11/05 01:36:19;;;;;;;;;;;;;;;;;;2108709;28;1254;-87
2021/11/05 01:37:21;;;;;;;;;;;;;;;;;;2100391;28;1358;-87
2021/11/05 01:38:22;;;;;;;;;;;;;;;;;;2094335;28;1266;-87
2021/11/05 01:39:25;;;;;;;;;;;;;;;;;;2100148;28;1369;-87
2021/11/05 01:40:26;;;;;;;;;;;;;;;;;;2100679;28;1228;-87
2021/11/05 01:41:28;;;;;;;;;;;;;;;;;;2100557;28;2057;-88
2021/11/05 01:42:32;;;;;;;;;;;;;;;;;;2117717;28;1381;-87
2021/11/05 01:43:34;;;;;;;;;;;;;;;;;;2108968;28;1313;-87
2021/11/05 01:44:35;;;;;;;;;;;;;;;;;;2109583;28;1305;-87
2021/11/05 01:45:39;;;;;;;;;;;;;;;;;;2109127;28;1250;-87
2021/11/05 01:46:41;;;;;;;;;;;;;;;;;;2108434;28;1252;-87
2021/11/05 01:47:43;;;;;;;;;;;;;;;;;;2108494;28;1171;-87
2021/11/05 01:48:44;;;;;;;;;;;;;;;;;;2108830;28;1305;-87
2021/11/05 01:49:46;;;;;;;;;;;;;;;;;;2100727;28;1231;-87
2021/11/05 01:50:48;;;;;;;;;;;;;;;;;;2109917;28;2071;-88
2021/11/05 01:51:51;;;;;;;;;;;;;;;;;;2108517;28;1317;-87
2021/11/05 01:52:52;;;;;;;;;;;;;;;;;;2108677;28;1404;-88
2021/11/05 01:53:54;;;;;;;;;;;;;;;;;;2108897;28;1187;-87
2021/11/05 01:54:54;;;;;;;;;;;;;;;;;;2109205;28;1966;-87
2021/11/05 01:55:56;;;;;;;;;;;;;;;;;;2108797;28;1363;-87
2021/11/05 01:56:57;;;;;;;;;;;;;;;;;;2109015;28;1353;-90
2021/11/05 01:58:00;;;;;;;;;;;;;;;;;;2108891;28;1320;-88
2021/11/05 01:59:01;;;;;;;;;;;;;;;;;;2108601;28;1248;-87
2021/11/05 02:00:05;;;;;;;;;;;;;;;;;;2108471;28;1410;-87
2021/11/05 02:01:12;;;;;;;;;;;;;;;;;;2117510;28;664;-87
2021/11/05 02:02:14;;;;;;;;;;;;;;;;;;2117734;28;1194;-88
2021/11/05 02:03:15;;;;;;;;;;;;;;;;;;2108318;28;1505;-87
2021/11/05 02:04:17;;;;;;;;;;;;;;;;;;2109247;28;1460;-87
2021/11/05 02:05:19;;;;;;;;;;;;;;;;;;2116847;28;1291;-87
2021/11/05 02:06:22;;;;;;;;;;;;;;;;;;2109114;28;1218;-87
2021/11/05 02:07:28;;;;;;;;;;;;;;;;;;2108617;28;1199;-87
2021/11/05 02:08:29;;;;;;;;;;;;;;;;;;2101781;28;1286;-87
2021/11/05 02:09:31;;;;;;;;;;;;;;;;;;2100474;28;1370;-87
2021/11/05 02:10:32;;;;;;;;;;;;;;;;;;2108490;28;1319;-86
2021/11/05 02:11:34;;;;;;;;;;;;;;;;;;2108372;28;1388;-87
2021/11/05 02:12:35;;;;;;;;;;;;;;;;;;2100403;28;1419;-86
2021/11/05 02:13:41;;;;;;;;;;;;;;;;;;2108079;28;1212;-86
2021/11/05 02:14:44;;;;;;;;;;;;;;;;;;2108515;28;1965;-87
2021/11/05 02:15:46;;;;;;;;;;;;;;;;;;2100676;28;1266;-87
2021/11/05 02:16:48;;;;;;;;;;;;;;;;;;2109175;28;1330;-87
2021/11/05 02:17:50;;;;;;;;;;;;;;;;;;2108227;28;1276;-86
2021/11/05 02:18:51;;;;;;;;;;;;;;;;;;2108844;28;1074;-86
2021/11/05 02:19:53;;;;;;;;;;;;;;;;;;2108227;28;1359;-86
2021/11/05 02:20:55;;;;;;;;;;;;;;;;;;2100301;28;1309;-86
2021/11/05 02:21:59;;;;;;;;;;;;;;;;;;2100298;28;1256;-87
2021/11/05 02:23:00;;;;;;;;;;;;;;;;;;2100381;28;1261;-88
2021/11/05 02:24:02;;;;;;;;;;;;;;;;;;2108525;28;1410;-87
2021/11/05 02:25:04;;;;;;;;;;;;;;;;;;2108601;28;1424;-88
2021/11/05 02:26:06;;;;;;;;;;;;;;;;;;2108403;28;1277;-88
2021/11/05 02:27:07;;;;;;;;;;;;;;;;;;2108167;28;1301;-88
2021/11/05 02:28:09;;;;;;;;;;;;;;;;;;2108010;28;1407;-89
2021/11/05 02:29:10;;;;;;;;;;;;;;;;;;2108195;28;1385;-88
2021/11/05 02:30:13;;;;;;;;;;;;;;;;;;2108378;28;1338;-88
2021/11/05 02:31:15;;;;;;;;;;;;;;;;;;2099910;28;1407;-88
2021/11/05 02:32:16;;;;;;;;;;;;;;;;;;2108742;28;1222;-88
2021/11/05 02:33:19;;;;;;;;;;;;;;;;;;2108620;28;820;-88
2021/11/05 02:34:20;;;;;;;;;;;;;;;;;;2100164;28;1973;-88
2021/11/05 02:35:25;;;;;;;;;;;;;;;;;;2099999;28;1333;-88
2021/11/05 02:36:26;;;;;;;;;;;;;;;;;;2100396;28;1244;-88
2021/11/05 02:37:31;;;;;;;;;;;;;;;;;;2100372;28;1422;-88
2021/11/05 02:38:37;;;;;;;;;;;;;;;;;;2100522;28;1206;-88
2021/11/05 02:39:37;;;;;;;;;;;;;;;;;;2100141;28;1395;-88
2021/11/05 02:40:39;;;;;;;;;;;;;;;;;;2108260;28;1404;-88
2021/11/05 02:41:41;;;;;;;;;;;;;;;;;;2108279;28;1256;-88
2021/11/05 02:42:43;;;;;;;;;;;;;;;;;;2108961;28;1319;-88
2021/11/05 02:43:44;;;;;;;;;;;;;;;;;;2107901;28;1222;-87
2021/11/05 02:44:46;;;;;;;;;;;;;;;;;;2099794;28;1308;-88
2021/11/05 02:45:47;;;;;;;;;;;;;;;;;;2107065;28;1288;-88
2021/11/05 02:46:49;;;;;;;;;;;;;;;;;;2108511;28;1180;-88
2021/11/05 02:47:51;;;;;;;;;;;;;;;;;;2108198;28;1257;-88
2021/11/05 02:48:56;;;;;;;;;;;;;;;;;;2108326;28;1350;-88
2021/11/05 02:49:58;;;;;;;;;;;;;;;;;;2100420;28;1425;-88
2021/11/05 02:51:01;;;;;;;;;;;;;;;;;;2100259;28;1195;-89
2021/11/05 02:52:03;;;;;;;;;;;;;;;;;;2092340;28;1453;-88
2021/11/05 02:53:06;;;;;;;;;;;;;;;;;;2096064;28;1182;-88
2021/11/05 02:54:08;;;;;;;;;;;;;;;;;;2099983;28;1274;-88
2021/11/05 02:55:10;;;;;;;;;;;;;;;;;;2099677;28;1930;-88
2021/11/05 02:56:12;;;;;;;;;;;;;;;;;;2104689;28;1309;-88
2021/11/05 02:57:14;;;;;;;;;;;;;;;;;;2108791;28;1262;-88
2021/11/05 02:58:16;;;;;;;;;;;;;;;;;;2105298;28;2039;-88
2021/11/05 02:59:18;;;;;;;;;;;;;;;;;;2107967;28;1507;-88
2021/11/05 03:00:19;;;;;;;;;;;;;;;;;;2116386;28;1525;-88
2021/11/05 03:01:22;;;;;;;;;;;;;;;;;;2108018;28;1307;-88
2021/11/05 03:02:23;;;;;;;;;;;;;;;;;;2108272;28;1346;-88
2021/11/05 03:03:26;;;;;;;;;;;;;;;;;;2100950;28;1380;-88
2021/11/05 03:04:27;;;;;;;;;;;;;;;;;;2100276;28;1378;-88
2021/11/05 03:05:29;;;;;;;;;;;;;;;;;;2108012;28;1538;-88
2021/11/05 03:06:33;;;;;;;;;;;;;;;;;;2114570;28;1216;-88
2021/11/05 03:07:35;;;;;;;;;;;;;;;;;;2099915;28;1366;-89
2021/11/05 03:08:39;;;;;;;;;;;;;;;;;;2100009;28;1223;-88
2021/11/05 03:09:42;;;;;;;;;;;;;;;;;;2100541;28;862;-87
2021/11/05 03:10:43;;;;;;;;;;;;;;;;;;2100546;28;1977;-88
2021/11/05 03:11:47;;;;;;;;;;;;;;;;;;2108374;28;1368;-87
2021/11/05 03:12:48;;;;;;;;;;;;;;;;;;2108802;28;1304;-88
2021/11/05 03:13:53;;;;;;;;;;;;;;;;;;2108236;28;1343;-88
2021/11/05 03:14:54;;;;;;;;;;;;;;;;;;2108518;28;1969;-88
2021/11/05 03:15:56;;;;;;;;;;;;;;;;;;2105585;28;2076;-88
2021/11/05 03:16:57;;;;;;;;;;;;;;;;;;2091878;28;1272;-89
2021/11/05 03:18:00;;;;;;;;;;;;;;;;;;2091314;28;1277;-86
2021/11/05 03:19:01;;;;;;;;;;;;;;;;;;2100128;28;1254;-86
2021/11/05 03:20:03;;;;;;;;;;;;;;;;;;2108111;28;1221;-86
2021/11/05 03:21:04;;;;;;;;;;;;;;;;;;2099729;28;1418;-86
2021/11/05 03:22:06;;;;;;;;;;;;;;;;;;2099614;28;1239;-85
2021/11/05 03:23:07;;;;;;;;;;;;;;;;;;2099451;28;1199;-86
2021/11/05 03:24:11;;;;;;;;;;;;;;;;;;2107821;28;1222;-86
2021/11/05 03:25:12;;;;;;;;;;;;;;;;;;2108408;28;1217;-86
2021/11/05 03:26:13;;;;;;;;;;;;;;;;;;2108308;28;1233;-86
2021/11/05 03:27:14;;;;;;;;;;;;;;;;;;2108180;28;1173;-86
2021/11/05 03:28:16;;;;;;;;;;;;;;;;;;2105141;28;1230;-86
2021/11/05 03:29:17;;;;;;;;;;;;;;;;;;2108071;28;1334;-86
2021/11/05 03:30:20;;;;;;;;;;;;;;;;;;2108287;28;1245;-86
2021/11/05 03:31:20;;;;;;;;;;;;;;;;;;2101824;28;1471;-86
2021/11/05 03:32:23;;;;;;;;;;;;;;;;;;2099774;28;1198;-86
2021/11/05 03:33:23;;;;;;;;;;;;;;;;;;2091178;28;1186;-86
2021/11/05 03:34:25;;;;;;;;;;;;;;;;;;2100168;28;1337;-86
2021/11/05 03:35:26;;;;;;;;;;;;;;;;;;2099258;28;1981;-86
2021/11/05 03:36:28;;;;;;;;;;;;;;;;;;2099441;28;1228;-86
2021/11/05 03:37:29;;;;;;;;;;;;;;;;;;2099234;28;1338;-87
2021/11/05 03:38:31;;;;;;;;;;;;;;;;;;2107628;28;1421;-86
2021/11/05 03:39:34;;;;;;;;;;;;;;;;;;2107760;28;1250;-86
2021/11/05 03:40:36;;;;;;;;;;;;;;;;;;2108405;28;1337;-86
2021/11/05 03:41:37;;;;;;;;;;;;;;;;;;2116633;28;1214;-86
2021/11/05 03:42:39;;;;;;;;;;;;;;;;;;2107913;28;1246;-86
2021/11/05 03:43:40;;;;;;;;;;;;;;;;;;2107829;28;1357;-87
2021/11/05 03:44:42;;;;;;;;;;;;;;;;;;2108129;28;1466;-86
2021/11/05 03:45:44;;;;;;;;;;;;;;;;;;2107919;28;1397;-86
2021/11/05 03:46:45;;;;;;;;;;;;;;;;;;2108346;28;1341;-86
2021/11/05 03:47:47;;;;;;;;;;;;;;;;;;2116269;28;1100;-87
2021/11/05 03:48:49;;;;;;;;;;;;;;;;;;2116529;28;1226;-86
2021/11/05 03:49:50;;;;;;;;;;;;;;;;;;2107588;28;1219;-86
2021/11/05 03:50:52;;;;;;;;;;;;;;;;;;2108043;28;1278;-86
2021/11/05 03:51:53;;;;;;;;;;;;;;;;;;2116683;28;1234;-86
2021/11/05 03:52:55;;;;;;;;;;;;;;;;;;2107833;28;1217;-86
2021/11/05 03:53:55;;;;;;;;;;;;;;;;;;2108140;28;1221;-86
2021/11/05 03:54:59;;;;;;;;;;;;;;;;;;2115906;28;1909;-86
2021/11/05 03:56:00;;;;;;;;;;;;;;;;;;2108246;28;1179;-86
2021/11/05 03:57:02;;;;;;;;;;;;;;;;;;2115728;28;1405;-87
2021/11/05 03:58:03;;;;;;;;;;;;;;;;;;2103461;28;1341;-86
2021/11/05 03:59:05;;;;;;;;;;;;;;;;;;2107014;28;1427;-87
2021/11/05 04:00:07;;;;;;;;;;;;;;;;;;2108212;28;1227;-86
2021/11/05 04:01:08;;;;;;;;;;;;;;;;;;2099586;28;1227;-87
2021/11/05 04:02:10;;;;;;;;;;;;;;;;;;2099908;28;1226;-86
2021/11/05 04:03:12;;;;;;;;;;;;;;;;;;2099754;28;1270;-86
2021/11/05 04:04:14;;;;;;;;;;;;;;;;;;2108215;28;1186;-86
2021/11/05 04:05:16;;;;;;;;;;;;;;;;;;2107428;28;1399;-86
2021/11/05 04:06:19;;;;;;;;;;;;;;;;;;2108048;28;1319;-87
2021/11/05 04:07:23;;;;;;;;;;;;;;;;;;2099870;28;1427;-87
2021/11/05 04:08:23;;;;;;;;;;;;;;;;;;2099397;28;1248;-87
2021/11/05 04:09:25;;;;;;;;;;;;;;;;;;2107502;28;1219;-87
2021/11/05 04:10:27;;;;;;;;;;;;;;;;;;2100035;28;1279;-87
2021/11/05 04:11:29;;;;;;;;;;;;;;;;;;2106000;28;1937;-87
2021/11/05 04:12:30;;;;;;;;;;;;;;;;;;2107932;28;1403;-87
2021/11/05 04:13:34;;;;;;;;;;;;;;;;;;2090877;28;1304;-87
2021/11/05 04:14:36;;;;;;;;;;;;;;;;;;2092014;28;1354;-86
2021/11/05 04:15:38;;;;;;;;;;;;;;;;;;2099546;28;1988;-87
2021/11/05 04:16:40;;;;;;;;;;;;;;;;;;2099368;28;1385;-87
2021/11/05 04:17:41;;;;;;;;;;;;;;;;;;2099293;28;1281;-86
2021/11/05 04:18:43;;;;;;;;;;;;;;;;;;2099150;28;1227;-86
2021/11/05 04:19:45;;;;;;;;;;;;;;;;;;2099719;28;1266;-87
2021/11/05 04:20:47;;;;;;;;;;;;;;;;;;2100127;28;1251;-87
2021/11/05 04:21:49;;;;;;;;;;;;;;;;;;2099611;28;1380;-87
2021/11/05 04:22:50;;;;;;;;;;;;;;;;;;2099965;28;1625;-87
2021/11/05 04:23:52;;;;;;;;;;;;;;;;;;2099027;28;1244;-87
2021/11/05 04:24:52;;;;;;;;;;;;;;;;;;2107493;28;1210;-86
2021/11/05 04:25:56;;;;;;;;;;;;;;;;;;2107203;28;1381;-87
2021/11/05 04:26:57;;;;;;;;;;;;;;;;;;2099670;28;1332;-90
2021/11/05 04:27:59;;;;;;;;;;;;;;;;;;2099681;28;1396;-86
2021/11/05 04:28:59;;;;;;;;;;;;;;;;;;2107179;28;1257;-87
2021/11/05 04:30:01;;;;;;;;;;;;;;;;;;2107536;28;1387;-86
2021/11/05 04:31:02;;;;;;;;;;;;;;;;;;2107279;28;2119;-86
2021/11/05 04:32:05;;;;;;;;;;;;;;;;;;2107794;28;1222;-86
2021/11/05 04:33:06;;;;;;;;;;;;;;;;;;2099286;28;1285;-87
2021/11/05 04:34:08;;;;;;;;;;;;;;;;;;2099134;28;1293;-86
2021/11/05 04:35:09;;;;;;;;;;;;;;;;;;2099750;28;1918;-87
2021/11/05 04:36:11;;;;;;;;;;;;;;;;;;2091191;28;1199;-87
2021/11/05 04:37:12;;;;;;;;;;;;;;;;;;2099443;28;1352;-87
2021/11/05 04:38:14;;;;;;;;;;;;;;;;;;2099045;28;1173;-86
2021/11/05 04:39:17;;;;;;;;;;;;;;;;;;2107387;28;1282;-86
2021/11/05 04:40:18;;;;;;;;;;;;;;;;;;2099374;28;1341;-87
2021/11/05 04:41:23;;;;;;;;;;;;;;;;;;2104933;28;1370;-88
2021/11/05 04:42:27;;;;;;;;;;;;;;;;;;2100179;28;864;-88
2021/11/05 04:43:28;;;;;;;;;;;;;;;;;;2106040;28;1197;-88
2021/11/05 04:44:30;;;;;;;;;;;;;;;;;;2107511;28;1203;-88
2021/11/05 04:45:31;;;;;;;;;;;;;;;;;;2107373;28;1278;-88
2021/11/05 04:46:34;;;;;;;;;;;;;;;;;;2107352;28;1199;-87
2021/11/05 04:47:35;;;;;;;;;;;;;;;;;;2116210;28;1225;-88
2021/11/05 04:48:38;;;;;;;;;;;;;;;;;;2115962;28;1187;-88
2021/11/05 04:49:39;;;;;;;;;;;;;;;;;;2108008;28;1315;-88
2021/11/05 04:50:40;;;;;;;;;;;;;;;;;;2107397;28;1285;-88
2021/11/05 04:51:41;;;;;;;;;;;;;;;;;;2107365;28;1273;-87
2021/11/05 04:52:47;;;;;;;;;;;;;;;;;;2108087;28;1293;-87
2021/11/05 04:53:48;;;;;;;;;;;;;;;;;;2099763;28;1378;-87
2021/11/05 04:54:50;;;;;;;;;;;;;;;;;;2099137;28;1420;-87
2021/11/05 04:55:51;;;;;;;;;;;;;;;;;;2107189;28;1906;-87
2021/11/05 04:56:55;;;;;;;;;;;;;;;;;;2099745;28;1518;-87
2021/11/05 04:57:56;;;;;;;;;;;;;;;;;;2099360;28;1330;-87
2021/11/05 04:58:58;;;;;;;;;;;;;;;;;;2099267;28;1341;-87
2021/11/05 04:59:59;;;;;;;;;;;;;;;;;;2099641;28;1335;-88
2021/11/05 05:01:01;;;;;;;;;;;;;;;;;;2115459;28;1365;-88
2021/11/05 05:02:02;;;;;;;;;;;;;;;;;;2115730;28;1279;-87
2021/11/05 05:03:05;;;;;;;;;;;;;;;;;;2107285;28;1413;-88
2021/11/05 05:04:06;;;;;;;;;;;;;;;;;;2115980;28;1318;-88
2021/11/05 05:05:08;;;;;;;;;;;;;;;;;;2107388;28;1313;-88
2021/11/05 05:06:09;;;;;;;;;;;;;;;;;;2115731;28;1289;-88
2021/11/05 05:07:11;;;;;;;;;;;;;;;;;;2107576;28;1233;-88
2021/11/05 05:08:13;;;;;;;;;;;;;;;;;;2115813;28;1486;-87
2021/11/05 05:09:14;;;;;;;;;;;;;;;;;;2108060;28;1368;-87
2021/11/05 05:10:17;;;;;;;;;;;;;;;;;;2109404;28;1217;-87
2021/11/05 05:11:19;;;;;;;;;;;;;;;;;;2109040;28;1363;-87
2021/11/05 05:12:22;;;;;;;;;;;;;;;;;;2109654;28;1229;-88
2021/11/05 05:13:24;;;;;;;;;;;;;;;;;;2101772;28;2035;-88
2021/11/05 05:14:24;;;;;;;;;;;;;;;;;;2100373;28;1366;-88
2021/11/05 05:15:26;;;;;;;;;;;;;;;;;;2108737;28;1984;-88
2021/11/05 05:16:27;;;;;;;;;;;;;;;;;;2101053;28;1318;-88
2021/11/05 05:17:29;;;;;;;;;;;;;;;;;;2100396;28;1341;-88
2021/11/05 05:18:30;;;;;;;;;;;;;;;;;;2100505;28;1394;-86
2021/11/05 05:19:33;;;;;;;;;;;;;;;;;;2092251;28;1470;-87
2021/11/05 05:20:35;;;;;;;;;;;;;;;;;;2093158;28;1205;-88
2021/11/05 05:21:36;;;;;;;;;;;;;;;;;;2108749;28;1375;-86
2021/11/05 05:22:38;;;;;;;;;;;;;;;;;;2100440;28;1330;-87
2021/11/05 05:23:41;;;;;;;;;;;;;;;;;;2108906;28;1335;-87
2021/11/05 05:24:41;;;;;;;;;;;;;;;;;;2100893;28;1190;-86
2021/11/05 05:25:43;;;;;;;;;;;;;;;;;;2100203;28;2001;-84
2021/11/05 05:26:44;;;;;;;;;;;;;;;;;;2100239;28;1751;-82
2021/11/05 05:27:49;;;;;;;;;;;;;;;;;;2100030;28;1269;-82
2021/11/05 05:28:51;;;;;;;;;;;;;;;;;;2101071;28;1238;-82
2021/11/05 05:29:52;;;;;;;;;;;;;;;;;;2091758;28;1190;-82
2021/11/05 05:30:55;;;;;;;;;;;;;;;;;;2096160;28;1370;-82
2021/11/05 05:31:55;;;;;;;;;;;;;;;;;;2100408;28;1807;-81
2021/11/05 05:32:57;;;;;;;;;;;;;;;;;;2107856;28;1333;-81
2021/11/05 05:33:58;;;;;;;;;;;;;;;;;;2102592;28;1339;-81
2021/11/05 05:35:00;;;;;;;;;;;;;;;;;;2108968;28;1202;-83
2021/11/05 05:36:01;;;;;;;;;;;;;;;;;;2108556;28;2027;-82
2021/11/05 05:37:03;;;;;;;;;;;;;;;;;;2108058;28;1365;-82
2021/11/05 05:38:04;;;;;;;;;;;;;;;;;;2109126;28;1218;-83
2021/11/05 05:39:05;;;;;;;;;;;;;;;;;;2100323;28;1288;-81
2021/11/05 05:40:07;;;;;;;;;;;;;;;;;;2100439;28;1646;-81
2021/11/05 05:41:09;;;;;;;;;;;;;;;;;;2092225;28;1322;-83
2021/11/05 05:42:10;;;;;;;;;;;;;;;;;;2084355;28;1261;-82
2021/11/05 05:43:14;;;;;;;;;;;;;;;;;;2091681;28;1271;-83
2021/11/05 05:44:16;;;;;;;;;;;;;;;;;;2108555;28;1447;-82
2021/11/05 05:45:20;;;;;;;;;;;;;;;;;;2100578;28;1278;-83
2021/11/05 05:46:21;;;;;;;;;;;;;;;;;;2100768;28;1328;-83
2021/11/05 05:47:23;;;;;;;;;;;;;;;;;;2100401;28;1238;-83
2021/11/05 05:48:23;;;;;;;;;;;;;;;;;;2110430;28;1414;-84
2021/11/05 05:49:25;;;;;;;;;;;;;;;;;;2099870;28;1406;-83
2021/11/05 05:50:29;;;;;;;;;;;;;;;;;;2100243;28;1255;-83
2021/11/05 05:51:32;;;;;;;;;;;;;;;;;;2108212;28;1289;-83
2021/11/05 05:52:34;;;;;;;;;;;;;;;;;;2108173;28;1409;-83
2021/11/05 05:53:36;;;;;;;;;;;;;;;;;;2108059;28;1421;-83
2021/11/05 05:54:37;;;;;;;;;;;;;;;;;;2111497;28;1341;-83
2021/11/05 05:55:40;;;;;;;;;;;;;;;;;;2108057;28;1894;-83
2021/11/05 05:56:40;;;;;;;;;;;;;;;;;;2116904;28;1186;-83
2021/11/05 05:57:42;;;;;;;;;;;;;;;;;;2115432;28;1347;-84
2021/11/05 05:58:45;;;;;;;;;;;;;;;;;;2100056;28;1441;-83
2021/11/05 05:59:47;;;;;;;;;;;;;;;;;;2100077;28;1337;-83
2021/11/05 06:00:48;;;;;;;;;;;;;;;;;;2100959;28;1428;-84
2021/11/05 06:01:49;;;;;;;;;;;;;;;;;;2103955;28;1323;-83
2021/11/05 06:02:51;;;;;;;;;;;;;;;;;;2101234;28;1724;-83
2021/11/05 06:03:52;;;;;;;;;;;;;;;;;;2104738;28;1515;-83
2021/11/05 06:04:54;;;;;;;;;;;;;;;;;;2100201;28;1313;-83
2021/11/05 06:05:57;;;;;;;;;;;;;;;;;;2102053;28;1657;-83
2021/11/05 06:06:57;;;;;;;;;;;;;;;;;;2108084;28;1414;-83
2021/11/05 06:08:00;;;;;;;;;;;;;;;;;;2103247;28;2027;-82
2021/11/05 06:09:02;;;;;;;;;;;;;;;;;;2102565;28;1422;-85
2021/11/05 06:10:03;;;;;;;;;;;;;;;;;;2091991;28;1357;-84
2021/11/05 06:11:05;;;;;;;;;;;;;;;;;;2083484;28;1215;-83
2021/11/05 06:12:06;;;;;;;;;;;;;;;;;;2091880;28;1349;-84
2021/11/05 06:13:08;;;;;;;;;;;;;;;;;;2096366;28;2138;-84
2021/11/05 06:14:10;;;;;;;;;;;;;;;;;;2115030;28;1575;-83
2021/11/05 06:15:12;;;;;;;;;;;;;;;;;;2108140;28;1264;-83
2021/11/05 06:16:13;;;;;;;;;;;;;;;;;;2099933;28;1976;-83
2021/11/05 06:17:15;;;;;;;;;;;;;;;;;;2107923;28;1238;-83
2021/11/05 06:18:17;;;;;;;;;;;;;;;;;;2108632;28;1371;-86
2021/11/05 06:19:19;;;;;;;;;;;;;;;;;;2116975;28;1214;-83
2021/11/05 06:20:20;;;;;;;;;;;;;;;;;;2116479;28;1403;-82
2021/11/05 06:21:24;;;;;;;;;;;;;;;;;;2107886;28;1219;-83
2021/11/05 06:22:26;;;;;;;;;;;;;;;;;;2108718;28;1338;-83
2021/11/05 06:23:28;;;;;;;;;;;;;;;;;;2099645;28;1428;-84
2021/11/05 06:24:29;;;;;;;;;;;;;;;;;;2108001;28;1512;-83
2021/11/05 06:25:31;;;;;;;;;;;;;;;;;;2106986;28;1280;-83
2021/11/05 06:26:32;;;;;;;;;;;;;;;;;;2113471;28;1705;-83
2021/11/05 06:27:34;;;;;;;;;;;;;;;;;;2108195;28;1431;-83
2021/11/05 06:28:35;;;;;;;;;;;;;;;;;;2100056;28;1326;-83
2021/11/05 06:29:38;;;;;;;;;;;;;;;;;;2102930;28;1348;-83
2021/11/05 06:30:40;;;;;;;;;;;;;;;;;;2108279;28;1214;-83
2021/11/05 06:31:41;;;;;;;;;;;;;;;;;;2107373;28;1281;-84
2021/11/05 06:32:43;;;;;;;;;;;;;;;;;;2107641;28;1409;-83
2021/11/05 06:33:44;;;;;;;;;;;;;;;;;;2114338;28;1655;-83
2021/11/05 06:34:46;;;;;;;;;;;;;;;;;;2105550;28;1773;-84
2021/11/05 06:35:53;;;;;;;;;;;;;;;;;;2107946;28;1676;-85
2021/11/05 06:36:57;;;;;;;;;;;;;;;;;;2107166;28;1456;-83
2021/11/05 06:37:59;;;;;;;;;;;;;;;;;;2105429;28;1887;-83
2021/11/05 06:39:05;;;;;;;;;;;;;;;;;;2100121;28;1246;-82
2021/11/05 06:40:08;;;;;;;;;;;;;;;;;;2099614;28;1786;-84
2021/11/05 06:41:13;;;;;;;;;;;;;;;;;;2103048;28;1880;-84
2021/11/05 06:42:20;;;;;;;;;;;;;;;;;;2100404;28;1304;-84
2021/11/05 06:43:34;;;;;;;;;;;;;;;;;;2102728;28;1887;-84
2021/11/05 06:44:37;;;;;;;;;;;;;;;;;;2107976;28;797;-84
2021/11/05 06:45:42;;;;;;;;;;;;;;;;;;2108129;28;1326;-83
2021/11/05 06:46:43;;;;;;;;;;;;;;;;;;2103010;28;1383;-82
2021/11/05 06:47:46;;;;;;;;;;;;;;;;;;2108339;28;866;-82
2021/11/05 06:48:47;;;;;;;;;;;;;;;;;;2107954;28;1238;-82
2021/11/05 06:49:49;;;;;;;;;;;;;;;;;;2099370;28;1377;-82
2021/11/05 06:50:56;;;;;;;;;;;;;;;;;;2108135;28;1194;-83
2021/11/05 06:51:58;;;;;;;;;;;;;;;;;;2092173;28;1392;-83
2021/11/05 06:52:58;;;;;;;;;;;;;;;;;;2091017;28;1849;-84
2021/11/05 06:54:02;;;;;;;;;;;;;;;;;;2107987;28;1134;-83
2021/11/05 06:55:05;;;;;;;;;;;;;;;;;;2107512;28;1256;-83
2021/11/05 06:56:06;;;;;;;;;;;;;;;;;;2099889;28;1975;-83
2021/11/05 06:57:08;;;;;;;;;;;;;;;;;;2099150;28;1219;-83
2021/11/05 06:58:11;;;;;;;;;;;;;;;;;;2112408;28;2105;-83
2021/11/05 06:59:13;;;;;;;;;;;;;;;;;;2107670;28;1223;-83
2021/11/05 07:00:15;;;;;;;;;;;;;;;;;;2107597;28;1249;-83
2021/11/05 07:01:17;;;;;;;;;;;;;;;;;;2107693;28;1353;-82
2021/11/05 07:02:19;;;;;;;;;;;;;;;;;;2116482;28;1217;-83
2021/11/05 07:03:20;;;;;;;;;;;;;;;;;;2100928;28;1885;-84
2021/11/05 07:04:22;;;;;;;;;;;;;;;;;;2107045;28;1344;-83
2021/11/05 07:05:25;;;;;;;;;;;;;;;;;;2108095;28;1231;-83
2021/11/05 07:06:26;;;;;;;;;;;;;;;;;;2116141;28;1273;-83
2021/11/05 07:07:30;;;;;;;;;;;;;;;;;;2107374;28;1481;-83
2021/11/05 07:08:31;;;;;;;;;;;;;;;;;;2107343;28;1872;-83
2021/11/05 07:09:33;;;;;;;;;;;;;;;;;;2107777;28;1337;-83
2021/11/05 07:10:34;;;;;;;;;;;;;;;;;;2108083;28;1278;-84